Airfield :
LOGIN :

Register | Disclaimer

   EN    FR    IT 

 










Legend :    VFR   Marginal VFR   IFR   Intensive IFR   Very Intensive IFR
Visi :
Ceiling :
>= 8 km
>= 3000ft
5 to 8 km
1000 to 3000 ft
1500m to 5 km
500 to 1000 ft
800 to 1500m
200 to 500 ft
< 800m
< 200 ft
Symbols :   Thunderstorms  Fog  Heavy snow  Heavy precipitations  Wind > 20 kt
SIGMETs :     Misc.  Thunderstorms  Icing  Turbulence  Mountain Waves  Volcanic Ashes






- Airport Elevation : 113 ft


EKRS - Ringsted

CURRENT METAR :
  • 120050Z AUTO 18004KT 150V210 5000 BR OVC004/// 04/04 Q1001

EXPIRED METARs :
  • 120020Z AUTO 19004KT 150V230 3900 -DZ BKN003/// OVC005/// 04/04 Q1001
  • 112350Z AUTO 19004KT 140V240 3700 UP BR OVC003/// 04/04 Q1001
  • 112320Z AUTO 19004KT 170V230 2700 BR OVC003/// 04/04 Q1002
  • 112250Z AUTO 18003KT 3600 BR OVC003/// 05/05 Q1002
  • 112220Z AUTO 19003KT 160V220 2100 BR OVC002/// 05/05 Q1002

TAF N/A



MET'MAP, your aeronautical weather chart ! - Copyright ORBIFLY December 2007 - Disclaimer

ORBIFLY MET'MAP TEAM :

Programming & Development : Alexandra Zaïnal
Concept & original design : Baudouin d'Aumeries
Assistance for programming : Marc-Olivier Méhu
Technical & hardware support : Manuel Goepfert

Contact : metmap@orbifly.com




SOURCES & CREDITS :

   NOAA